Aviation Digital Data Service (ADDS)

Output produced by METARs form (1747 UTC 24 June 2019)
found at http://www.aviationweather.gov/metar/data/
 
Forecast for: KMCI (KANSAS CITY/INTL, MO, US)
Text: KMCI 241722Z 2418/2518 28008KT P6SM SKC
Forecast period: 1800 UTC 24 June 2019 to 0900 UTC 25 June 2019
Forecast type: FROM: standard forecast or significant change
Winds: from the W (280 degrees) at 9 MPH (8 knots; 4.1 m/s)
Visibility: 6 or more miles 10+ km)
Clouds: clear skies
Weather: no significant weather forecast for this period
Text: FM250900 VRB05KT P6SM FEW250 WS020/24040KT
Forecast period: 0900 to 1300 UTC 25 June 2019
Forecast type: FROM: standard forecast or significant change
Winds: variable direction winds at 6 MPH (5 knots; 2.6 m/s)
Visibility: 6 or more miles 10+ km)
Ceiling: at least 12,000 feet AGL
Clouds: few clouds at 25000 feet AGL
Wind Shear: at 2000 feet ( 610 m) AGL, from the WSW (240 degrees) at 46 MPH (40 knots; 20.8 m/s)
Weather: no significant weather forecast for this period
Text: FM251300 21008KT P6SM FEW250
Forecast period: 1300 to 1800 UTC 25 June 2019
Forecast type: FROM: standard forecast or significant change
Winds: from the SSW (210 degrees) at 9 MPH (8 knots; 4.1 m/s)
Visibility: 6 or more miles 10+ km)
Ceiling: at least 12,000 feet AGL
Clouds: few clouds at 25000 feet AGL
Weather: no significant weather forecast for this period